Terminal Aerodrome Forecast
Issued by NWS Portland, OR

Home | Current Version | Previous Version | Text Only | Print | Product List | Glossary On
Versions: 1 2 3 4 5 6 7 8 9 10 11 12 13 14 15 16 17 18 19 20 21 22 23 24 25 26 27 28 29 30 31 32
000
FTUS46 KPQR 251514 AAA
TAFTTD
TAF AMD
KTTD 251514Z 2515/2612 VRB03KT P6SM SCT025 OVC035
     FM252300 28004KT P6SM SCT030 BKN035
     FM260300 32008KT P6SM BKN035
     FM260800 32003KT P6SM BKN015 OVC035=

USA.gov is the U.S. government's official web portal to all federal, state and local government web resources and services.